sensor_id;sensor_type;location;lat;lon;timestamp;P1;durP1;ratioP1;P2;durP2;ratioP2
29548;SDS011;16487;53.094;8.800;2023-02-28T00:00:26;9.60;;;6.00;;
29548;SDS011;16487;53.094;8.800;2023-02-28T00:02:53;9.60;;;6.77;;
29548;SDS011;16487;53.094;8.800;2023-02-28T00:05:21;9.70;;;6.20;;
29548;SDS011;16487;53.094;8.800;2023-02-28T00:07:50;7.10;;;5.90;;
29548;SDS011;16487;53.094;8.800;2023-02-28T00:10:18;8.10;;;6.13;;
29548;SDS011;16487;53.094;8.800;2023-02-28T00:12:47;9.77;;;6.83;;
29548;SDS011;16487;53.094;8.800;2023-02-28T00:15:14;9.20;;;6.33;;
29548;SDS011;16487;53.094;8.800;2023-02-28T00:17:43;6.60;;;5.63;;
29548;SDS011;16487;53.094;8.800;2023-02-28T00:20:11;9.20;;;6.57;;
29548;SDS011;16487;53.094;8.800;2023-02-28T00:22:40;7.37;;;6.30;;
29548;SDS011;16487;53.094;8.800;2023-02-28T00:25:09;10.20;;;7.27;;
29548;SDS011;16487;53.094;8.800;2023-02-28T00:27:38;8.90;;;6.53;;
29548;SDS011;16487;53.094;8.800;2023-02-28T00:30:07;9.37;;;6.00;;
29548;SDS011;16487;53.094;8.800;2023-02-28T00:32:37;7.10;;;6.40;;
29548;SDS011;16487;53.094;8.800;2023-02-28T00:35:06;7.57;;;5.70;;
29548;SDS011;16487;53.094;8.800;2023-02-28T00:37:35;7.27;;;5.60;;
29548;SDS011;16487;53.094;8.800;2023-02-28T00:40:05;9.13;;;5.70;;
29548;SDS011;16487;53.094;8.800;2023-02-28T00:42:34;8.10;;;5.73;;
29548;SDS011;16487;53.094;8.800;2023-02-28T00:45:01;8.20;;;6.30;;
29548;SDS011;16487;53.094;8.800;2023-02-28T00:47:29;5.97;;;5.00;;
29548;SDS011;16487;53.094;8.800;2023-02-28T00:49:57;6.80;;;5.50;;
29548;SDS011;16487;53.094;8.800;2023-02-28T00:52:26;7.70;;;5.17;;
29548;SDS011;16487;53.094;8.800;2023-02-28T00:54:54;7.40;;;4.57;;
29548;SDS011;16487;53.094;8.800;2023-02-28T00:57:21;8.13;;;5.13;;
29548;SDS011;16487;53.094;8.800;2023-02-28T00:59:48;7.87;;;4.73;;
29548;SDS011;16487;53.094;8.800;2023-02-28T01:02:16;6.00;;;4.83;;
29548;SDS011;16487;53.094;8.800;2023-02-28T01:04:43;6.20;;;4.60;;
29548;SDS011;16487;53.094;8.800;2023-02-28T01:07:13;5.60;;;4.53;;
29548;SDS011;16487;53.094;8.800;2023-02-28T01:09:42;8.60;;;4.80;;
29548;SDS011;16487;53.094;8.800;2023-02-28T01:12:14;4.40;;;4.00;;
29548;SDS011;16487;53.094;8.800;2023-02-28T01:14:41;5.33;;;4.43;;
29548;SDS011;16487;53.094;8.800;2023-02-28T01:17:09;7.50;;;5.37;;
29548;SDS011;16487;53.094;8.800;2023-02-28T01:19:36;6.60;;;4.47;;
29548;SDS011;16487;53.094;8.800;2023-02-28T01:22:04;5.23;;;4.20;;
29548;SDS011;16487;53.094;8.800;2023-02-28T01:24:34;4.67;;;3.83;;
29548;SDS011;16487;53.094;8.800;2023-02-28T01:27:03;7.17;;;4.60;;
29548;SDS011;16487;53.094;8.800;2023-02-28T01:29:30;6.03;;;4.63;;
29548;SDS011;16487;53.094;8.800;2023-02-28T01:31:57;5.57;;;4.27;;
29548;SDS011;16487;53.094;8.800;2023-02-28T01:34:24;5.57;;;4.20;;
29548;SDS011;16487;53.094;8.800;2023-02-28T01:36:52;5.97;;;4.30;;
29548;SDS011;16487;53.094;8.800;2023-02-28T01:39:19;6.47;;;4.23;;
29548;SDS011;16487;53.094;8.800;2023-02-28T01:41:46;5.37;;;3.70;;
29548;SDS011;16487;53.094;8.800;2023-02-28T01:47:20;5.10;;;4.13;;
29548;SDS011;16487;53.094;8.800;2023-02-28T01:49:47;6.20;;;4.13;;
29548;SDS011;16487;53.094;8.800;2023-02-28T01:52:16;6.57;;;3.60;;
29548;SDS011;16487;53.094;8.800;2023-02-28T01:54:43;6.03;;;3.27;;
29548;SDS011;16487;53.094;8.800;2023-02-28T01:57:15;4.60;;;3.40;;
29548;SDS011;16487;53.094;8.800;2023-02-28T01:59:47;4.40;;;3.60;;
29548;SDS011;16487;53.094;8.800;2023-02-28T02:02:18;5.10;;;4.40;;
29548;SDS011;16487;53.094;8.800;2023-02-28T02:04:50;5.33;;;4.00;;
29548;SDS011;16487;53.094;8.800;2023-02-28T02:07:22;6.20;;;4.23;;
29548;SDS011;16487;53.094;8.800;2023-02-28T02:09:58;4.73;;;4.27;;
29548;SDS011;16487;53.094;8.800;2023-02-28T02:12:35;6.57;;;4.90;;
29548;SDS011;16487;53.094;8.800;2023-02-28T02:15:18;5.37;;;4.10;;
29548;SDS011;16487;53.094;8.800;2023-02-28T02:17:56;4.93;;;4.43;;
29548;SDS011;16487;53.094;8.800;2023-02-28T02:23:52;5.23;;;4.30;;
29548;SDS011;16487;53.094;8.800;2023-02-28T02:26:38;6.40;;;4.93;;
29548;SDS011;16487;53.094;8.800;2023-02-28T02:29:28;5.77;;;4.17;;
29548;SDS011;16487;53.094;8.800;2023-02-28T02:35:05;5.73;;;4.30;;
29548;SDS011;16487;53.094;8.800;2023-02-28T02:37:40;5.07;;;3.70;;
29548;SDS011;16487;53.094;8.800;2023-02-28T02:40:14;4.70;;;4.20;;
29548;SDS011;16487;53.094;8.800;2023-02-28T02:42:47;5.47;;;3.93;;
29548;SDS011;16487;53.094;8.800;2023-02-28T02:45:19;5.20;;;4.33;;
29548;SDS011;16487;53.094;8.800;2023-02-28T02:47:53;5.60;;;4.80;;
29548;SDS011;16487;53.094;8.800;2023-02-28T02:50:26;7.37;;;4.37;;
29548;SDS011;16487;53.094;8.800;2023-02-28T02:52:58;5.80;;;4.90;;
29548;SDS011;16487;53.094;8.800;2023-02-28T02:55:30;6.67;;;4.60;;
29548;SDS011;16487;53.094;8.800;2023-02-28T02:58:01;5.50;;;4.40;;
29548;SDS011;16487;53.094;8.800;2023-02-28T03:00:34;6.90;;;4.83;;
29548;SDS011;16487;53.094;8.800;2023-02-28T03:03:05;5.97;;;5.37;;
29548;SDS011;16487;53.094;8.800;2023-02-28T03:05:39;6.07;;;4.77;;
29548;SDS011;16487;53.094;8.800;2023-02-28T03:08:11;7.10;;;5.40;;
29548;SDS011;16487;53.094;8.800;2023-02-28T03:10:39;5.90;;;5.33;;
29548;SDS011;16487;53.094;8.800;2023-02-28T03:16:09;5.70;;;4.70;;
29548;SDS011;16487;53.094;8.800;2023-02-28T03:18:53;5.20;;;4.70;;
29548;SDS011;16487;53.094;8.800;2023-02-28T03:21:34;5.63;;;4.90;;
29548;SDS011;16487;53.094;8.800;2023-02-28T03:24:05;5.07;;;4.63;;
29548;SDS011;16487;53.094;8.800;2023-02-28T03:26:36;5.53;;;4.63;;
29548;SDS011;16487;53.094;8.800;2023-02-28T03:29:08;7.00;;;5.53;;
29548;SDS011;16487;53.094;8.800;2023-02-28T03:31:41;8.50;;;5.67;;
29548;SDS011;16487;53.094;8.800;2023-02-28T03:34:16;5.80;;;5.30;;
29548;SDS011;16487;53.094;8.800;2023-02-28T03:36:51;6.80;;;6.07;;
29548;SDS011;16487;53.094;8.800;2023-02-28T03:39:23;10.90;;;6.17;;
29548;SDS011;16487;53.094;8.800;2023-02-28T03:41:56;9.97;;;6.13;;
29548;SDS011;16487;53.094;8.800;2023-02-28T03:44:27;7.23;;;5.73;;
29548;SDS011;16487;53.094;8.800;2023-02-28T03:47:00;6.53;;;5.30;;
29548;SDS011;16487;53.094;8.800;2023-02-28T03:49:31;10.27;;;4.80;;
29548;SDS011;16487;53.094;8.800;2023-02-28T03:52:03;9.70;;;5.40;;
29548;SDS011;16487;53.094;8.800;2023-02-28T03:54:34;6.17;;;5.27;;
29548;SDS011;16487;53.094;8.800;2023-02-28T03:57:08;6.13;;;5.57;;
29548;SDS011;16487;53.094;8.800;2023-02-28T03:59:42;6.47;;;5.23;;
29548;SDS011;16487;53.094;8.800;2023-02-28T04:02:14;5.93;;;5.30;;
29548;SDS011;16487;53.094;8.800;2023-02-28T04:04:41;5.17;;;4.63;;
29548;SDS011;16487;53.094;8.800;2023-02-28T04:07:10;5.30;;;4.67;;
29548;SDS011;16487;53.094;8.800;2023-02-28T04:09:38;6.23;;;4.53;;
29548;SDS011;16487;53.094;8.800;2023-02-28T04:12:06;8.27;;;5.50;;
29548;SDS011;16487;53.094;8.800;2023-02-28T04:14:34;6.23;;;5.03;;
29548;SDS011;16487;53.094;8.800;2023-02-28T04:17:02;6.40;;;5.07;;
29548;SDS011;16487;53.094;8.800;2023-02-28T04:19:30;6.53;;;5.00;;
29548;SDS011;16487;53.094;8.800;2023-02-28T04:21:57;6.43;;;5.27;;
29548;SDS011;16487;53.094;8.800;2023-02-28T04:24:31;5.17;;;4.67;;
29548;SDS011;16487;53.094;8.800;2023-02-28T04:26:58;6.47;;;4.50;;
29548;SDS011;16487;53.094;8.800;2023-02-28T04:29:26;5.63;;;4.93;;
29548;SDS011;16487;53.094;8.800;2023-02-28T04:31:55;7.80;;;5.10;;
29548;SDS011;16487;53.094;8.800;2023-02-28T04:34:23;8.03;;;5.10;;
29548;SDS011;16487;53.094;8.800;2023-02-28T04:36:51;7.63;;;5.27;;
29548;SDS011;16487;53.094;8.800;2023-02-28T04:39:41;6.43;;;4.60;;
29548;SDS011;16487;53.094;8.800;2023-02-28T04:42:09;5.60;;;4.80;;
29548;SDS011;16487;53.094;8.800;2023-02-28T04:44:40;4.93;;;4.50;;
29548;SDS011;16487;53.094;8.800;2023-02-28T04:47:07;7.17;;;4.50;;
29548;SDS011;16487;53.094;8.800;2023-02-28T04:49:34;9.70;;;6.00;;
29548;SDS011;16487;53.094;8.800;2023-02-28T04:52:02;7.20;;;4.83;;
29548;SDS011;16487;53.094;8.800;2023-02-28T04:54:29;7.23;;;4.90;;
29548;SDS011;16487;53.094;8.800;2023-02-28T04:56:58;6.17;;;5.17;;
29548;SDS011;16487;53.094;8.800;2023-02-28T04:59:25;5.53;;;4.73;;
29548;SDS011;16487;53.094;8.800;2023-02-28T05:01:52;5.23;;;4.73;;
29548;SDS011;16487;53.094;8.800;2023-02-28T05:04:19;4.70;;;4.20;;
29548;SDS011;16487;53.094;8.800;2023-02-28T05:06:47;7.10;;;3.97;;
29548;SDS011;16487;53.094;8.800;2023-02-28T05:09:14;7.20;;;4.63;;
29548;SDS011;16487;53.094;8.800;2023-02-28T05:11:42;5.90;;;4.20;;
29548;SDS011;16487;53.094;8.800;2023-02-28T05:14:11;4.43;;;4.03;;
29548;SDS011;16487;53.094;8.800;2023-02-28T05:16:39;7.50;;;5.40;;
29548;SDS011;16487;53.094;8.800;2023-02-28T05:19:07;5.30;;;4.03;;
29548;SDS011;16487;53.094;8.800;2023-02-28T05:21:35;5.33;;;4.60;;
29548;SDS011;16487;53.094;8.800;2023-02-28T05:24:05;5.10;;;3.90;;
29548;SDS011;16487;53.094;8.800;2023-02-28T05:26:34;5.37;;;4.83;;
29548;SDS011;16487;53.094;8.800;2023-02-28T05:29:02;5.30;;;4.57;;
29548;SDS011;16487;53.094;8.800;2023-02-28T05:31:31;5.10;;;4.60;;
29548;SDS011;16487;53.094;8.800;2023-02-28T05:33:59;6.03;;;4.57;;
29548;SDS011;16487;53.094;8.800;2023-02-28T05:36:26;6.10;;;5.10;;
29548;SDS011;16487;53.094;8.800;2023-02-28T05:38:54;5.20;;;4.50;;
29548;SDS011;16487;53.094;8.800;2023-02-28T05:41:21;5.20;;;4.23;;
29548;SDS011;16487;53.094;8.800;2023-02-28T05:43:48;5.67;;;4.60;;
29548;SDS011;16487;53.094;8.800;2023-02-28T05:46:16;8.13;;;5.03;;
29548;SDS011;16487;53.094;8.800;2023-02-28T05:48:45;4.93;;;4.43;;
29548;SDS011;16487;53.094;8.800;2023-02-28T05:51:14;6.80;;;5.43;;
29548;SDS011;16487;53.094;8.800;2023-02-28T05:53:41;7.10;;;5.60;;
29548;SDS011;16487;53.094;8.800;2023-02-28T05:56:09;6.30;;;4.90;;
29548;SDS011;16487;53.094;8.800;2023-02-28T05:58:36;5.50;;;4.67;;
29548;SDS011;16487;53.094;8.800;2023-02-28T06:01:19;6.43;;;4.90;;
29548;SDS011;16487;53.094;8.800;2023-02-28T06:03:49;5.80;;;4.03;;
29548;SDS011;16487;53.094;8.800;2023-02-28T06:06:17;5.57;;;5.07;;
29548;SDS011;16487;53.094;8.800;2023-02-28T06:08:44;7.87;;;6.30;;
29548;SDS011;16487;53.094;8.800;2023-02-28T06:11:11;10.03;;;6.97;;
29548;SDS011;16487;53.094;8.800;2023-02-28T06:13:39;6.93;;;5.60;;
29548;SDS011;16487;53.094;8.800;2023-02-28T06:16:08;7.83;;;5.93;;
29548;SDS011;16487;53.094;8.800;2023-02-28T06:18:37;7.57;;;6.07;;
29548;SDS011;16487;53.094;8.800;2023-02-28T06:21:06;7.70;;;5.67;;
29548;SDS011;16487;53.094;8.800;2023-02-28T06:23:33;5.97;;;5.17;;
29548;SDS011;16487;53.094;8.800;2023-02-28T06:26:00;7.90;;;5.40;;
29548;SDS011;16487;53.094;8.800;2023-02-28T06:28:29;9.20;;;5.40;;
29548;SDS011;16487;53.094;8.800;2023-02-28T06:30:58;10.30;;;5.60;;
29548;SDS011;16487;53.094;8.800;2023-02-28T06:33:25;6.40;;;5.80;;
29548;SDS011;16487;53.094;8.800;2023-02-28T06:35:52;7.70;;;6.17;;
29548;SDS011;16487;53.094;8.800;2023-02-28T06:38:21;7.47;;;6.10;;
29548;SDS011;16487;53.094;8.800;2023-02-28T06:40:52;7.13;;;6.40;;
29548;SDS011;16487;53.094;8.800;2023-02-28T06:43:20;7.13;;;6.43;;
29548;SDS011;16487;53.094;8.800;2023-02-28T06:45:47;7.73;;;7.00;;
29548;SDS011;16487;53.094;8.800;2023-02-28T06:48:14;7.77;;;7.07;;
29548;SDS011;16487;53.094;8.800;2023-02-28T06:50:42;8.53;;;7.30;;
29548;SDS011;16487;53.094;8.800;2023-02-28T06:53:09;8.00;;;7.00;;
29548;SDS011;16487;53.094;8.800;2023-02-28T06:55:38;7.70;;;6.50;;
29548;SDS011;16487;53.094;8.800;2023-02-28T06:58:06;7.30;;;6.63;;
29548;SDS011;16487;53.094;8.800;2023-02-28T07:00:33;7.53;;;6.37;;
29548;SDS011;16487;53.094;8.800;2023-02-28T07:03:01;9.00;;;6.67;;
29548;SDS011;16487;53.094;8.800;2023-02-28T07:05:28;7.23;;;5.97;;
29548;SDS011;16487;53.094;8.800;2023-02-28T07:07:56;9.00;;;6.90;;
29548;SDS011;16487;53.094;8.800;2023-02-28T07:10:23;7.73;;;6.67;;
29548;SDS011;16487;53.094;8.800;2023-02-28T07:12:52;9.50;;;7.10;;
29548;SDS011;16487;53.094;8.800;2023-02-28T07:15:19;8.73;;;7.20;;
29548;SDS011;16487;53.094;8.800;2023-02-28T07:17:46;7.87;;;6.83;;
29548;SDS011;16487;53.094;8.800;2023-02-28T07:20:13;8.57;;;6.77;;
29548;SDS011;16487;53.094;8.800;2023-02-28T07:22:41;7.20;;;6.50;;
29548;SDS011;16487;53.094;8.800;2023-02-28T07:25:08;11.07;;;7.27;;
29548;SDS011;16487;53.094;8.800;2023-02-28T07:27:36;8.07;;;6.90;;
29548;SDS011;16487;53.094;8.800;2023-02-28T07:30:06;10.63;;;6.77;;
29548;SDS011;16487;53.094;8.800;2023-02-28T07:32:34;6.37;;;5.77;;
29548;SDS011;16487;53.094;8.800;2023-02-28T07:35:01;7.83;;;6.27;;
29548;SDS011;16487;53.094;8.800;2023-02-28T07:37:28;8.77;;;5.63;;
29548;SDS011;16487;53.094;8.800;2023-02-28T07:39:56;6.50;;;4.90;;
29548;SDS011;16487;53.094;8.800;2023-02-28T07:42:23;8.53;;;6.03;;
29548;SDS011;16487;53.094;8.800;2023-02-28T07:44:50;9.30;;;6.30;;
29548;SDS011;16487;53.094;8.800;2023-02-28T07:47:19;6.93;;;5.67;;
29548;SDS011;16487;53.094;8.800;2023-02-28T07:49:47;10.17;;;5.80;;
29548;SDS011;16487;53.094;8.800;2023-02-28T07:52:14;9.80;;;6.33;;
29548;SDS011;16487;53.094;8.800;2023-02-28T07:54:41;12.37;;;5.80;;
29548;SDS011;16487;53.094;8.800;2023-02-28T07:57:08;6.47;;;5.37;;
29548;SDS011;16487;53.094;8.800;2023-02-28T07:59:36;7.33;;;5.80;;
29548;SDS011;16487;53.094;8.800;2023-02-28T08:02:03;7.33;;;5.57;;
29548;SDS011;16487;53.094;8.800;2023-02-28T08:04:32;8.20;;;5.50;;
29548;SDS011;16487;53.094;8.800;2023-02-28T08:07:04;8.13;;;6.10;;
29548;SDS011;16487;53.094;8.800;2023-02-28T08:09:32;8.10;;;6.00;;
29548;SDS011;16487;53.094;8.800;2023-02-28T08:11:59;8.03;;;6.60;;
29548;SDS011;16487;53.094;8.800;2023-02-28T08:14:27;8.70;;;5.90;;
29548;SDS011;16487;53.094;8.800;2023-02-28T08:16:54;5.83;;;5.13;;
29548;SDS011;16487;53.094;8.800;2023-02-28T08:19:22;6.10;;;5.47;;
29548;SDS011;16487;53.094;8.800;2023-02-28T08:21:51;5.40;;;4.90;;
29548;SDS011;16487;53.094;8.800;2023-02-28T08:24:18;6.60;;;4.87;;
29548;SDS011;16487;53.094;8.800;2023-02-28T08:26:45;6.60;;;4.80;;
29548;SDS011;16487;53.094;8.800;2023-02-28T08:29:12;6.77;;;4.97;;
29548;SDS011;16487;53.094;8.800;2023-02-28T08:31:40;5.90;;;4.60;;
29548;SDS011;16487;53.094;8.800;2023-02-28T08:34:08;6.67;;;4.40;;
29548;SDS011;16487;53.094;8.800;2023-02-28T08:36:37;4.20;;;3.57;;
29548;SDS011;16487;53.094;8.800;2023-02-28T08:39:07;6.57;;;4.30;;
29548;SDS011;16487;53.094;8.800;2023-02-28T08:41:34;4.40;;;3.00;;
29548;SDS011;16487;53.094;8.800;2023-02-28T08:44:01;5.67;;;3.60;;
29548;SDS011;16487;53.094;8.800;2023-02-28T08:46:29;7.80;;;3.77;;
29548;SDS011;16487;53.094;8.800;2023-02-28T08:48:56;4.33;;;3.33;;
29548;SDS011;16487;53.094;8.800;2023-02-28T08:51:24;4.43;;;3.40;;
29548;SDS011;16487;53.094;8.800;2023-02-28T08:53:51;4.47;;;3.10;;
29548;SDS011;16487;53.094;8.800;2023-02-28T08:56:20;4.20;;;2.67;;
29548;SDS011;16487;53.094;8.800;2023-02-28T08:58:48;3.67;;;2.60;;
29548;SDS011;16487;53.094;8.800;2023-02-28T09:01:17;3.73;;;2.40;;
29548;SDS011;16487;53.094;8.800;2023-02-28T09:03:46;2.40;;;2.20;;
29548;SDS011;16487;53.094;8.800;2023-02-28T09:06:15;3.60;;;2.80;;
29548;SDS011;16487;53.094;8.800;2023-02-28T09:08:44;5.00;;;2.73;;
29548;SDS011;16487;53.094;8.800;2023-02-28T09:11:12;8.57;;;4.40;;
29548;SDS011;16487;53.094;8.800;2023-02-28T09:13:40;2.80;;;2.57;;
29548;SDS011;16487;53.094;8.800;2023-02-28T09:16:08;2.73;;;2.50;;
29548;SDS011;16487;53.094;8.800;2023-02-28T09:18:39;3.07;;;2.70;;
29548;SDS011;16487;53.094;8.800;2023-02-28T09:21:09;2.77;;;2.37;;
29548;SDS011;16487;53.094;8.800;2023-02-28T09:23:38;2.67;;;2.40;;
29548;SDS011;16487;53.094;8.800;2023-02-28T09:26:05;2.27;;;2.07;;
29548;SDS011;16487;53.094;8.800;2023-02-28T09:28:33;2.77;;;2.30;;
29548;SDS011;16487;53.094;8.800;2023-02-28T09:31:02;3.17;;;1.80;;
29548;SDS011;16487;53.094;8.800;2023-02-28T09:33:30;1.60;;;1.13;;
29548;SDS011;16487;53.094;8.800;2023-02-28T09:35:58;2.10;;;1.40;;
29548;SDS011;16487;53.094;8.800;2023-02-28T09:38:27;1.60;;;1.50;;
29548;SDS011;16487;53.094;8.800;2023-02-28T09:40:55;1.83;;;1.27;;
29548;SDS011;16487;53.094;8.800;2023-02-28T09:43:25;1.87;;;1.00;;
29548;SDS011;16487;53.094;8.800;2023-02-28T09:45:56;1.90;;;1.40;;
29548;SDS011;16487;53.094;8.800;2023-02-28T09:48:29;3.70;;;1.50;;
29548;SDS011;16487;53.094;8.800;2023-02-28T09:51:02;2.00;;;1.53;;
29548;SDS011;16487;53.094;8.800;2023-02-28T09:53:36;4.50;;;1.50;;
29548;SDS011;16487;53.094;8.800;2023-02-28T09:56:05;1.87;;;1.60;;
29548;SDS011;16487;53.094;8.800;2023-02-28T09:58:37;2.87;;;1.90;;
29548;SDS011;16487;53.094;8.800;2023-02-28T10:01:12;1.97;;;1.77;;
29548;SDS011;16487;53.094;8.800;2023-02-28T10:03:53;1.90;;;1.67;;
29548;SDS011;16487;53.094;8.800;2023-02-28T10:06:26;4.20;;;3.80;;
29548;SDS011;16487;53.094;8.800;2023-02-28T10:08:58;2.17;;;1.40;;
29548;SDS011;16487;53.094;8.800;2023-02-28T10:11:29;2.23;;;1.67;;
29548;SDS011;16487;53.094;8.800;2023-02-28T10:13:59;1.77;;;1.67;;
29548;SDS011;16487;53.094;8.800;2023-02-28T10:16:31;2.90;;;2.10;;
29548;SDS011;16487;53.094;8.800;2023-02-28T10:19:05;2.97;;;1.60;;
29548;SDS011;16487;53.094;8.800;2023-02-28T10:21:41;1.63;;;1.53;;
29548;SDS011;16487;53.094;8.800;2023-02-28T10:24:16;3.73;;;2.10;;
29548;SDS011;16487;53.094;8.800;2023-02-28T10:26:47;2.63;;;1.90;;
29548;SDS011;16487;53.094;8.800;2023-02-28T10:29:15;2.07;;;1.43;;
29548;SDS011;16487;53.094;8.800;2023-02-28T10:31:42;2.80;;;1.80;;
29548;SDS011;16487;53.094;8.800;2023-02-28T10:34:12;3.23;;;1.37;;
29548;SDS011;16487;53.094;8.800;2023-02-28T10:36:39;3.03;;;1.60;;
29548;SDS011;16487;53.094;8.800;2023-02-28T10:42:01;3.17;;;1.73;;
29548;SDS011;16487;53.094;8.800;2023-02-28T10:44:29;2.20;;;1.70;;
29548;SDS011;16487;53.094;8.800;2023-02-28T10:46:56;1.93;;;1.70;;
29548;SDS011;16487;53.094;8.800;2023-02-28T10:49:26;3.40;;;1.60;;
29548;SDS011;16487;53.094;8.800;2023-02-28T10:51:55;1.87;;;1.77;;
29548;SDS011;16487;53.094;8.800;2023-02-28T10:54:24;1.90;;;1.53;;
29548;SDS011;16487;53.094;8.800;2023-02-28T10:59:45;1.90;;;1.80;;
29548;SDS011;16487;53.094;8.800;2023-02-28T11:02:30;1.73;;;1.63;;
29548;SDS011;16487;53.094;8.800;2023-02-28T11:05:01;2.23;;;2.00;;
29548;SDS011;16487;53.094;8.800;2023-02-28T11:07:29;1.80;;;1.67;;
29548;SDS011;16487;53.094;8.800;2023-02-28T11:10:17;3.20;;;1.93;;
29548;SDS011;16487;53.094;8.800;2023-02-28T11:12:47;2.20;;;1.80;;
29548;SDS011;16487;53.094;8.800;2023-02-28T11:15:21;2.00;;;1.60;;
29548;SDS011;16487;53.094;8.800;2023-02-28T11:17:54;2.23;;;2.03;;
29548;SDS011;16487;53.094;8.800;2023-02-28T11:20:26;1.70;;;1.60;;
29548;SDS011;16487;53.094;8.800;2023-02-28T11:22:57;1.83;;;1.73;;
29548;SDS011;16487;53.094;8.800;2023-02-28T11:25:28;3.03;;;2.23;;
29548;SDS011;16487;53.094;8.800;2023-02-28T11:27:59;2.27;;;1.77;;
29548;SDS011;16487;53.094;8.800;2023-02-28T11:30:29;1.73;;;1.60;;
29548;SDS011;16487;53.094;8.800;2023-02-28T11:33:18;2.40;;;1.90;;
29548;SDS011;16487;53.094;8.800;2023-02-28T11:35:50;1.77;;;1.60;;
29548;SDS011;16487;53.094;8.800;2023-02-28T11:38:19;2.23;;;2.00;;
29548;SDS011;16487;53.094;8.800;2023-02-28T11:40:48;2.43;;;2.23;;
29548;SDS011;16487;53.094;8.800;2023-02-28T11:43:32;3.00;;;2.00;;
29548;SDS011;16487;53.094;8.800;2023-02-28T11:46:13;2.00;;;1.90;;
29548;SDS011;16487;53.094;8.800;2023-02-28T11:48:50;2.27;;;2.10;;
29548;SDS011;16487;53.094;8.800;2023-02-28T11:51:28;2.13;;;1.93;;
29548;SDS011;16487;53.094;8.800;2023-02-28T11:54:21;3.03;;;1.97;;
29548;SDS011;16487;53.094;8.800;2023-02-28T11:56:57;2.43;;;2.23;;
29548;SDS011;16487;53.094;8.800;2023-02-28T11:59:41;3.13;;;1.93;;
29548;SDS011;16487;53.094;8.800;2023-02-28T12:02:23;2.00;;;1.83;;
29548;SDS011;16487;53.094;8.800;2023-02-28T12:04:58;4.27;;;2.50;;
29548;SDS011;16487;53.094;8.800;2023-02-28T12:07:41;3.30;;;2.23;;
29548;SDS011;16487;53.094;8.800;2023-02-28T12:10:20;1.63;;;1.53;;
29548;SDS011;16487;53.094;8.800;2023-02-28T12:12:51;2.37;;;2.17;;
29548;SDS011;16487;53.094;8.800;2023-02-28T12:18:39;1.90;;;1.80;;
29548;SDS011;16487;53.094;8.800;2023-02-28T12:21:18;2.13;;;1.93;;
29548;SDS011;16487;53.094;8.800;2023-02-28T12:23:59;3.07;;;2.07;;
29548;SDS011;16487;53.094;8.800;2023-02-28T12:26:48;2.73;;;2.10;;
29548;SDS011;16487;53.094;8.800;2023-02-28T12:29:19;2.50;;;2.00;;
29548;SDS011;16487;53.094;8.800;2023-02-28T12:31:51;2.30;;;2.10;;
29548;SDS011;16487;53.094;8.800;2023-02-28T12:34:25;1.93;;;1.83;;
29548;SDS011;16487;53.094;8.800;2023-02-28T12:36:58;2.13;;;1.93;;
29548;SDS011;16487;53.094;8.800;2023-02-28T12:39:33;2.30;;;1.77;;
29548;SDS011;16487;53.094;8.800;2023-02-28T12:42:17;2.30;;;2.10;;
29548;SDS011;16487;53.094;8.800;2023-02-28T12:44:49;2.10;;;1.90;;
29548;SDS011;16487;53.094;8.800;2023-02-28T12:47:21;4.63;;;2.00;;
29548;SDS011;16487;53.094;8.800;2023-02-28T12:49:49;1.97;;;1.83;;
29548;SDS011;16487;53.094;8.800;2023-02-28T12:52:19;2.10;;;1.90;;
29548;SDS011;16487;53.094;8.800;2023-02-28T12:54:54;2.37;;;2.10;;
29548;SDS011;16487;53.094;8.800;2023-02-28T12:57:31;1.93;;;1.83;;
29548;SDS011;16487;53.094;8.800;2023-02-28T13:00:03;2.03;;;1.80;;
29548;SDS011;16487;53.094;8.800;2023-02-28T13:02:44;1.90;;;1.80;;
29548;SDS011;16487;53.094;8.800;2023-02-28T13:05:39;3.20;;;2.40;;
29548;SDS011;16487;53.094;8.800;2023-02-28T13:08:39;2.30;;;2.10;;
29548;SDS011;16487;53.094;8.800;2023-02-28T13:11:40;1.90;;;1.80;;
29548;SDS011;16487;53.094;8.800;2023-02-28T13:17:09;2.40;;;2.13;;
29548;SDS011;16487;53.094;8.800;2023-02-28T13:19:39;2.00;;;1.90;;
29548;SDS011;16487;53.094;8.800;2023-02-28T13:22:17;3.10;;;2.20;;
29548;SDS011;16487;53.094;8.800;2023-02-28T13:24:47;2.20;;;1.70;;
29548;SDS011;16487;53.094;8.800;2023-02-28T13:30:01;2.93;;;2.10;;
29548;SDS011;16487;53.094;8.800;2023-02-28T13:32:51;2.67;;;1.90;;
29548;SDS011;16487;53.094;8.800;2023-02-28T13:38:51;2.30;;;1.93;;
29548;SDS011;16487;53.094;8.800;2023-02-28T13:44:13;1.83;;;1.73;;
29548;SDS011;16487;53.094;8.800;2023-02-28T13:52:54;2.33;;;2.13;;
29548;SDS011;16487;53.094;8.800;2023-02-28T13:55:31;2.60;;;1.93;;
29548;SDS011;16487;53.094;8.800;2023-02-28T13:58:08;3.43;;;3.13;;
29548;SDS011;16487;53.094;8.800;2023-02-28T14:00:45;2.20;;;1.70;;
29548;SDS011;16487;53.094;8.800;2023-02-28T14:03:39;2.83;;;2.63;;
29548;SDS011;16487;53.094;8.800;2023-02-28T14:06:25;4.00;;;2.90;;
29548;SDS011;16487;53.094;8.800;2023-02-28T14:08:56;3.17;;;2.60;;
29548;SDS011;16487;53.094;8.800;2023-02-28T14:11:27;2.80;;;2.00;;
29548;SDS011;16487;53.094;8.800;2023-02-28T14:14:00;3.00;;;2.03;;
29548;SDS011;16487;53.094;8.800;2023-02-28T14:16:35;2.83;;;2.53;;
29548;SDS011;16487;53.094;8.800;2023-02-28T14:19:11;3.03;;;2.80;;
29548;SDS011;16487;53.094;8.800;2023-02-28T14:21:46;5.60;;;3.80;;
29548;SDS011;16487;53.094;8.800;2023-02-28T14:24:33;6.97;;;6.00;;
29548;SDS011;16487;53.094;8.800;2023-02-28T14:27:37;4.83;;;4.30;;
29548;SDS011;16487;53.094;8.800;2023-02-28T14:30:14;2.70;;;2.50;;
29548;SDS011;16487;53.094;8.800;2023-02-28T14:32:58;3.20;;;2.90;;
29548;SDS011;16487;53.094;8.800;2023-02-28T14:35:39;3.37;;;3.10;;
29548;SDS011;16487;53.094;8.800;2023-02-28T14:38:16;3.07;;;2.77;;
29548;SDS011;16487;53.094;8.800;2023-02-28T14:40:49;1.97;;;1.87;;
29548;SDS011;16487;53.094;8.800;2023-02-28T14:43:19;2.03;;;1.87;;
29548;SDS011;16487;53.094;8.800;2023-02-28T14:45:49;2.00;;;1.90;;
29548;SDS011;16487;53.094;8.800;2023-02-28T14:48:19;2.17;;;1.97;;
29548;SDS011;16487;53.094;8.800;2023-02-28T14:50:51;2.20;;;2.00;;
29548;SDS011;16487;53.094;8.800;2023-02-28T14:53:22;2.27;;;1.80;;
29548;SDS011;16487;53.094;8.800;2023-02-28T14:55:52;2.30;;;2.10;;
29548;SDS011;16487;53.094;8.800;2023-02-28T14:58:21;2.40;;;2.20;;
29548;SDS011;16487;53.094;8.800;2023-02-28T15:00:51;2.93;;;2.73;;
29548;SDS011;16487;53.094;8.800;2023-02-28T15:03:21;3.50;;;3.20;;
29548;SDS011;16487;53.094;8.800;2023-02-28T15:05:51;2.90;;;2.53;;
29548;SDS011;16487;53.094;8.800;2023-02-28T15:08:19;2.30;;;2.10;;
29548;SDS011;16487;53.094;8.800;2023-02-28T15:10:53;1.80;;;1.70;;
29548;SDS011;16487;53.094;8.800;2023-02-28T15:13:22;2.10;;;1.90;;
29548;SDS011;16487;53.094;8.800;2023-02-28T15:15:53;1.70;;;1.60;;
29548;SDS011;16487;53.094;8.800;2023-02-28T15:18:32;2.73;;;2.00;;
29548;SDS011;16487;53.094;8.800;2023-02-28T15:21:11;2.20;;;1.90;;
29548;SDS011;16487;53.094;8.800;2023-02-28T15:23:42;2.13;;;2.03;;
29548;SDS011;16487;53.094;8.800;2023-02-28T15:26:13;1.87;;;1.77;;
29548;SDS011;16487;53.094;8.800;2023-02-28T15:28:43;2.20;;;2.00;;
29548;SDS011;16487;53.094;8.800;2023-02-28T15:31:19;1.93;;;1.83;;
29548;SDS011;16487;53.094;8.800;2023-02-28T15:33:53;2.17;;;2.00;;
29548;SDS011;16487;53.094;8.800;2023-02-28T15:36:24;2.03;;;1.93;;
29548;SDS011;16487;53.094;8.800;2023-02-28T15:38:55;2.17;;;2.07;;
29548;SDS011;16487;53.094;8.800;2023-02-28T15:41:35;2.20;;;2.00;;
29548;SDS011;16487;53.094;8.800;2023-02-28T15:44:15;2.80;;;2.60;;
29548;SDS011;16487;53.094;8.800;2023-02-28T15:46:45;4.13;;;3.30;;
29548;SDS011;16487;53.094;8.800;2023-02-28T15:49:22;3.67;;;3.00;;
29548;SDS011;16487;53.094;8.800;2023-02-28T15:51:50;3.97;;;2.57;;